createdAt,value
2023-05-15T00:01:54.795Z,75.84
2023-05-15T00:04:21.356Z,77.76
2023-05-15T00:06:47.819Z,77.68
2023-05-15T00:09:15.377Z,77.04
2023-05-15T00:11:41.833Z,76.73
2023-05-15T00:14:08.373Z,76.17
2023-05-15T00:16:35.005Z,74.62
2023-05-15T00:19:01.522Z,76.47
2023-05-15T00:21:27.951Z,76.60
2023-05-15T00:23:54.310Z,76.46
2023-05-15T00:26:23.521Z,76.39
2023-05-15T00:28:50.803Z,76.76
2023-05-15T00:31:17.244Z,76.36
2023-05-15T00:33:43.723Z,76.78
2023-05-15T00:36:10.239Z,77.56
2023-05-15T00:38:36.696Z,76.62
2023-05-15T00:41:06.397Z,75.86
2023-05-15T00:43:33.172Z,76.41
2023-05-15T00:46:00.286Z,75.58
2023-05-15T00:48:29.065Z,76.42
2023-05-15T00:50:57.693Z,77.06
2023-05-15T00:53:24.533Z,77.75
2023-05-15T00:55:52.994Z,78.40
2023-05-15T00:58:21.822Z,78.88
2023-05-15T01:00:51.053Z,78.29
2023-05-15T01:03:17.799Z,79.22
2023-05-15T01:05:45.044Z,78.24
2023-05-15T01:08:34.309Z,77.48
2023-05-15T01:11:03.950Z,77.44
2023-05-15T01:13:30.505Z,79.02
2023-05-15T01:15:58.918Z,78.98
2023-05-15T01:18:32.050Z,79.56
2023-05-15T01:21:01.557Z,79.98
2023-05-15T01:23:47.036Z,80.12
2023-05-15T01:26:38.982Z,81.54
2023-05-15T01:29:47.875Z,81.18
2023-05-15T01:32:23.807Z,80.47
2023-05-15T01:35:02.647Z,79.74
2023-05-15T01:37:31.935Z,80.64
2023-05-15T01:40:02.409Z,80.93
2023-05-15T01:42:33.406Z,80.52
2023-05-15T01:45:04.604Z,80.87
2023-05-15T01:47:48.631Z,80.86
2023-05-15T01:50:17.417Z,81.02
2023-05-15T01:52:49.105Z,81.21
2023-05-15T01:55:16.476Z,80.93
2023-05-15T01:57:43.430Z,81.32
2023-05-15T02:00:11.668Z,80.42
2023-05-15T02:02:42.210Z,80.42
2023-05-15T02:05:09.730Z,79.80
2023-05-15T02:07:36.886Z,79.01
2023-05-15T02:10:03.858Z,79.21
2023-05-15T02:12:31.696Z,78.57
2023-05-15T02:14:59.622Z,78.52
2023-05-15T02:17:27.966Z,78.03
2023-05-15T02:19:54.417Z,78.58
2023-05-15T02:22:20.875Z,78.12
2023-05-15T02:24:47.370Z,78.04
2023-05-15T02:27:28.953Z,78.99
2023-05-15T02:30:01.583Z,79.23
2023-05-15T02:32:39.529Z,78.04
2023-05-15T02:35:41.054Z,77.70
2023-05-15T02:38:15.607Z,77.72
2023-05-15T02:40:44.277Z,78.71
2023-05-15T02:43:11.300Z,78.44
2023-05-15T02:45:39.367Z,78.65
2023-05-15T02:48:07.060Z,78.26
2023-05-15T02:50:33.910Z,78.17
2023-05-15T02:53:07.584Z,78.64
2023-05-15T02:55:34.582Z,78.35
2023-05-15T02:58:01.455Z,78.51
2023-05-15T03:00:28.183Z,78.45
2023-05-15T03:02:54.927Z,78.52
2023-05-15T03:05:21.442Z,77.15
2023-05-15T03:07:47.974Z,76.09
2023-05-15T03:10:14.535Z,76.74
2023-05-15T03:12:41.133Z,77.79
2023-05-15T03:15:07.931Z,79.08
2023-05-15T03:17:35.596Z,79.51
2023-05-15T03:20:02.156Z,79.35
2023-05-15T03:22:28.666Z,78.29
2023-05-15T03:24:55.122Z,78.27
2023-05-15T03:27:21.631Z,78.11
2023-05-15T03:29:50.852Z,77.19
2023-05-15T03:32:17.801Z,78.74
2023-05-15T03:34:44.637Z,79.44
2023-05-15T03:37:11.114Z,78.50
2023-05-15T03:39:37.595Z,78.46
2023-05-15T03:42:04.734Z,78.26
2023-05-15T03:44:31.232Z,79.11
2023-05-15T03:46:57.738Z,77.44
2023-05-15T03:49:24.276Z,77.64
2023-05-15T03:51:50.739Z,78.00
2023-05-15T03:54:17.589Z,79.01
2023-05-15T03:56:44.418Z,79.29
2023-05-15T03:59:11.015Z,79.46
2023-05-15T04:01:44.246Z,80.35
2023-05-15T04:04:17.694Z,81.19
2023-05-15T04:06:44.108Z,80.81
2023-05-15T04:09:10.499Z,79.29
2023-05-15T04:11:36.982Z,78.80
2023-05-15T04:14:03.508Z,78.64
2023-05-15T04:16:30.008Z,78.32
2023-05-15T04:18:56.586Z,78.59
2023-05-15T04:21:23.091Z,79.85
2023-05-15T04:23:49.553Z,79.30
2023-05-15T04:26:16.436Z,79.20
2023-05-15T04:28:52.396Z,78.61
2023-05-15T04:31:23.859Z,79.30
2023-05-15T04:33:51.310Z,79.25
2023-05-15T04:36:17.870Z,80.19
2023-05-15T04:38:44.315Z,80.50
2023-05-15T04:41:11.241Z,81.15
2023-05-15T04:43:38.803Z,81.15
2023-05-15T04:46:05.950Z,80.21
2023-05-15T04:48:32.380Z,79.58
2023-05-15T04:50:58.754Z,79.31
2023-05-15T04:53:25.347Z,78.12
2023-05-15T04:55:51.768Z,77.60
2023-05-15T04:58:18.189Z,76.89
2023-05-15T05:00:44.632Z,76.80
2023-05-15T05:03:11.545Z,77.03
2023-05-15T05:05:38.084Z,77.05
2023-05-15T05:08:04.653Z,77.18
2023-05-15T05:10:31.099Z,78.01
2023-05-15T05:12:57.479Z,78.38
2023-05-15T05:15:24.097Z,79.15
2023-05-15T05:17:51.268Z,79.89
2023-05-15T05:20:17.784Z,79.62
2023-05-15T05:22:44.277Z,79.10
2023-05-15T05:25:10.805Z,80.04
2023-05-15T05:27:37.260Z,79.66
2023-05-15T05:30:04.081Z,78.65
2023-05-15T05:32:30.518Z,79.43
2023-05-15T05:34:56.920Z,79.93
2023-05-15T05:37:23.559Z,80.32
2023-05-15T05:39:49.937Z,79.63
2023-05-15T05:42:16.458Z,77.40
2023-05-15T05:44:42.956Z,76.29
2023-05-15T05:47:09.446Z,74.79
2023-05-15T05:49:36.145Z,73.08
2023-05-15T05:52:07.993Z,73.76
2023-05-15T05:54:34.647Z,73.64
2023-05-15T05:57:01.184Z,75.26
2023-05-15T05:59:29.089Z,74.32
2023-05-15T06:01:55.614Z,74.48
2023-05-15T06:04:22.306Z,76.47
2023-05-15T06:06:49.961Z,76.00
2023-05-15T06:09:16.615Z,77.27
2023-05-15T06:11:43.084Z,76.85
2023-05-15T06:14:09.511Z,75.52
2023-05-15T06:16:35.992Z,74.47
2023-05-15T06:19:02.619Z,71.64
2023-05-15T06:21:29.172Z,68.88
2023-05-15T06:23:55.610Z,65.78
2023-05-15T06:26:22.441Z,64.09
2023-05-15T06:28:48.840Z,63.61
2023-05-15T06:31:15.543Z,60.97
2023-05-15T06:33:41.967Z,60.30
2023-05-15T06:36:08.808Z,59.88
2023-05-15T06:38:35.217Z,59.52
2023-05-15T06:41:01.718Z,58.15
2023-05-15T06:43:28.177Z,56.84
2023-05-15T06:45:54.547Z,55.60
2023-05-15T06:48:21.032Z,55.37
2023-05-15T06:50:47.480Z,53.84
2023-05-15T06:53:14.612Z,53.27
2023-05-15T06:55:41.244Z,53.21
2023-05-15T06:58:07.747Z,53.21
2023-05-15T07:00:34.174Z,52.52
2023-05-15T07:03:00.636Z,51.51
2023-05-15T07:05:27.419Z,51.27
2023-05-15T07:07:54.072Z,51.10
2023-05-15T07:10:20.681Z,51.49
2023-05-15T07:12:47.141Z,51.04
2023-05-15T07:15:13.551Z,51.05
2023-05-15T07:17:40.067Z,49.66
2023-05-15T07:20:07.073Z,49.51
2023-05-15T07:22:38.564Z,47.79
2023-05-15T07:25:08.780Z,46.47
2023-05-15T07:27:35.537Z,45.46
2023-05-15T07:30:03.979Z,44.16
2023-05-15T07:32:30.986Z,43.97
2023-05-15T07:34:57.528Z,44.83
2023-05-15T07:37:24.747Z,45.20
2023-05-15T07:39:51.656Z,45.79
2023-05-15T07:42:18.053Z,46.19
2023-05-15T07:44:45.971Z,47.98
2023-05-15T07:47:14.119Z,46.27
2023-05-15T07:49:40.549Z,47.19
2023-05-15T07:52:07.165Z,46.51
2023-05-15T07:54:33.702Z,47.36
2023-05-15T07:57:00.580Z,45.68
2023-05-15T07:59:27.231Z,46.52
2023-05-15T08:01:53.988Z,45.93
2023-05-15T08:04:20.489Z,46.48
2023-05-15T08:06:47.101Z,46.08
2023-05-15T08:09:13.588Z,43.29
2023-05-15T08:11:39.960Z,44.79
2023-05-15T08:14:06.362Z,44.91
2023-05-15T08:16:32.943Z,44.75
2023-05-15T08:19:03.539Z,43.28
2023-05-15T08:21:31.055Z,42.50
2023-05-15T08:23:58.969Z,43.49
2023-05-15T08:26:25.565Z,44.34
2023-05-15T08:28:52.217Z,44.07
2023-05-15T08:31:18.723Z,44.78
2023-05-15T08:33:45.209Z,41.95
2023-05-15T08:36:11.844Z,41.21
2023-05-15T08:38:38.312Z,38.62
2023-05-15T08:41:10.833Z,39.66
2023-05-15T08:43:39.220Z,39.76
2023-05-15T08:46:06.773Z,41.51
2023-05-15T08:48:38.298Z,41.65
2023-05-15T08:51:10.425Z,41.63
2023-05-15T08:53:37.456Z,43.48
2023-05-15T08:56:04.567Z,42.37
2023-05-15T08:58:32.550Z,41.09
2023-05-15T09:00:59.258Z,41.00
2023-05-15T09:03:26.190Z,41.27
2023-05-15T09:05:53.236Z,43.35
2023-05-15T09:08:22.117Z,44.33
2023-05-15T09:10:49.806Z,45.29
2023-05-15T09:13:17.163Z,45.59
2023-05-15T09:15:46.562Z,42.85
2023-05-15T09:18:14.683Z,43.01
2023-05-15T09:20:41.225Z,41.07
2023-05-15T09:23:23.068Z,40.13
2023-05-15T09:25:53.844Z,42.59
2023-05-15T09:28:32.317Z,42.02
2023-05-15T09:31:01.189Z,43.17
2023-05-15T09:33:36.124Z,41.48
2023-05-15T09:36:07.275Z,41.72
2023-05-15T09:38:34.752Z,41.01
2023-05-15T09:41:03.512Z,39.90
2023-05-15T09:43:33.208Z,40.15
2023-05-15T09:45:59.709Z,41.57
2023-05-15T09:48:26.371Z,44.00
2023-05-15T09:50:53.170Z,43.08
2023-05-15T09:53:21.785Z,42.61
2023-05-15T09:55:49.209Z,44.91
2023-05-15T09:58:19.097Z,43.03
2023-05-15T10:00:48.082Z,44.32
2023-05-15T10:03:16.837Z,45.39
2023-05-15T10:05:44.307Z,44.23
2023-05-15T10:08:12.241Z,43.05
2023-05-15T10:10:38.863Z,40.72
2023-05-15T10:13:08.097Z,42.38
2023-05-15T10:15:34.992Z,40.48
2023-05-15T10:18:04.600Z,42.47
2023-05-15T10:20:32.941Z,41.81
2023-05-15T10:23:02.290Z,41.80
2023-05-15T10:25:50.767Z,43.75
2023-05-15T10:28:18.697Z,45.44
2023-05-15T10:30:46.326Z,45.30
2023-05-15T10:33:13.487Z,44.92
2023-05-15T10:35:40.228Z,46.91
2023-05-15T10:38:06.954Z,46.28
2023-05-15T10:40:37.241Z,46.64
2023-05-15T10:43:03.660Z,45.67
2023-05-15T10:45:31.966Z,46.49
2023-05-15T10:47:59.515Z,44.58
2023-05-15T10:50:26.948Z,47.14
2023-05-15T10:52:55.705Z,45.77
2023-05-15T10:55:22.862Z,43.21
2023-05-15T10:57:49.578Z,44.27
2023-05-15T11:00:21.918Z,41.18
2023-05-15T11:02:49.084Z,42.37
2023-05-15T11:05:15.623Z,44.48
2023-05-15T11:07:42.169Z,43.86
2023-05-15T11:10:30.289Z,45.54
2023-05-15T11:13:02.396Z,45.53
2023-05-15T11:15:42.132Z,44.95
2023-05-15T11:18:08.891Z,44.85
2023-05-15T11:20:58.707Z,43.90
2023-05-15T11:23:25.516Z,45.27
2023-05-15T11:25:58.097Z,48.54
2023-05-15T11:28:26.071Z,50.79
2023-05-15T11:30:54.495Z,52.82
2023-05-15T11:33:21.217Z,54.37
2023-05-15T11:35:48.459Z,54.88
2023-05-15T11:38:24.624Z,53.44
2023-05-15T11:40:56.499Z,53.25
2023-05-15T11:43:26.496Z,50.69
2023-05-15T11:45:57.765Z,51.12
2023-05-15T11:48:30.442Z,51.21
2023-05-15T11:50:56.954Z,51.54
2023-05-15T11:53:24.118Z,51.85
2023-05-15T11:55:52.987Z,52.64
2023-05-15T11:58:22.222Z,51.77
2023-05-15T12:00:50.024Z,50.53
2023-05-15T12:03:26.036Z,51.64
2023-05-15T12:05:59.109Z,49.20
2023-05-15T12:08:26.787Z,46.99
2023-05-15T12:10:53.237Z,47.77
2023-05-15T12:13:19.681Z,45.89
2023-05-15T12:15:46.885Z,46.53
2023-05-15T12:18:13.789Z,46.44
2023-05-15T12:20:45.009Z,44.06
2023-05-15T12:23:14.596Z,42.38
2023-05-15T12:25:41.639Z,42.09
2023-05-15T12:28:08.509Z,40.01
2023-05-15T12:30:35.622Z,39.77
2023-05-15T12:33:07.738Z,39.97
2023-05-15T12:35:45.229Z,40.86
2023-05-15T12:38:16.575Z,41.20
2023-05-15T12:40:45.338Z,42.96
2023-05-15T12:43:13.468Z,42.34
2023-05-15T12:45:42.555Z,42.42
2023-05-15T12:48:14.643Z,41.16
2023-05-15T12:50:44.926Z,42.11
2023-05-15T12:53:15.104Z,42.28
2023-05-15T12:55:43.517Z,41.70
2023-05-15T12:58:12.744Z,41.10
2023-05-15T13:00:41.951Z,39.40
2023-05-15T13:03:10.693Z,40.69
2023-05-15T13:05:37.982Z,38.61
2023-05-15T13:08:07.264Z,40.46
2023-05-15T13:10:38.037Z,40.04
2023-05-15T13:13:04.522Z,39.69
2023-05-15T13:15:37.120Z,38.91
2023-05-15T13:18:06.675Z,40.46
2023-05-15T13:20:42.499Z,39.43
2023-05-15T13:23:11.114Z,38.89
2023-05-15T13:25:37.899Z,39.79
2023-05-15T13:28:05.997Z,41.04
2023-05-15T13:30:34.297Z,38.80
2023-05-15T13:33:01.499Z,41.95
2023-05-15T13:35:28.688Z,41.85
2023-05-15T13:37:56.342Z,41.04
2023-05-15T13:40:23.074Z,38.98
2023-05-15T13:42:50.232Z,41.03
2023-05-15T13:45:16.763Z,40.07
2023-05-15T13:47:44.197Z,42.37
2023-05-15T13:50:15.143Z,40.51
2023-05-15T13:52:43.124Z,43.59
2023-05-15T13:55:10.258Z,41.71
2023-05-15T13:57:37.917Z,41.44
2023-05-15T14:00:07.650Z,42.04
2023-05-15T14:02:34.341Z,43.14
2023-05-15T14:05:01.124Z,43.44
2023-05-15T14:07:27.659Z,45.99
2023-05-15T14:09:54.057Z,46.40
2023-05-15T14:12:22.038Z,48.22
2023-05-15T14:14:48.651Z,47.89
2023-05-15T14:17:15.718Z,49.47
2023-05-15T14:19:42.644Z,51.19
2023-05-15T14:22:09.084Z,52.79
2023-05-15T14:24:35.561Z,54.82
2023-05-15T14:27:01.990Z,54.08
2023-05-15T14:29:28.457Z,54.71
2023-05-15T14:31:54.908Z,53.66
2023-05-15T14:34:22.487Z,53.41
2023-05-15T14:36:49.842Z,52.88
2023-05-15T14:39:17.304Z,55.56
2023-05-15T14:41:44.593Z,55.29
2023-05-15T14:44:11.099Z,56.46
2023-05-15T14:46:37.963Z,58.68
2023-05-15T14:49:05.026Z,60.38
2023-05-15T14:51:32.213Z,62.03
2023-05-15T14:53:58.810Z,62.96
2023-05-15T14:56:25.873Z,63.58
2023-05-15T14:58:53.582Z,63.61
2023-05-15T15:01:20.790Z,64.17
2023-05-15T15:03:47.917Z,63.75
2023-05-15T15:06:14.592Z,64.72
2023-05-15T15:08:41.183Z,65.93
2023-05-15T15:11:07.875Z,68.51
2023-05-15T15:13:34.416Z,71.08
2023-05-15T15:16:00.907Z,71.43
2023-05-15T15:18:27.375Z,72.25
2023-05-15T15:20:53.850Z,71.54
2023-05-15T15:23:20.408Z,71.17
2023-05-15T15:25:46.848Z,72.21
2023-05-15T15:28:13.284Z,72.77
2023-05-15T15:30:39.907Z,73.50
2023-05-15T15:33:06.350Z,73.41
2023-05-15T15:35:32.757Z,71.10
2023-05-15T15:37:59.233Z,70.65
2023-05-15T15:40:26.024Z,70.09
2023-05-15T15:42:54.168Z,70.46
2023-05-15T15:45:20.750Z,70.46
2023-05-15T15:47:47.330Z,70.91
2023-05-15T15:50:13.781Z,70.08
2023-05-15T15:52:40.287Z,71.86
2023-05-15T15:55:07.449Z,71.14
2023-05-15T15:57:34.004Z,70.23
2023-05-15T16:00:00.418Z,68.12
2023-05-15T16:02:28.193Z,69.04
2023-05-15T16:04:54.762Z,68.03
2023-05-15T16:07:21.229Z,68.65
2023-05-15T16:09:51.421Z,69.19
2023-05-15T16:12:26.944Z,68.20
2023-05-15T16:14:54.084Z,69.76
2023-05-15T16:17:21.057Z,69.67
2023-05-15T16:19:47.564Z,71.71
2023-05-15T16:22:13.992Z,70.83
2023-05-15T16:24:40.843Z,70.80
2023-05-15T16:27:07.302Z,71.51
2023-05-15T16:29:33.740Z,72.02
2023-05-15T16:32:00.380Z,71.44
2023-05-15T16:34:27.394Z,71.72
2023-05-15T16:36:53.821Z,72.16
2023-05-15T16:39:20.271Z,71.55
2023-05-15T16:41:46.723Z,70.53
2023-05-15T16:44:13.412Z,70.37
2023-05-15T16:46:39.907Z,70.12
2023-05-15T16:49:06.561Z,70.12
2023-05-15T16:51:33.265Z,70.10
2023-05-15T16:53:59.673Z,69.97
2023-05-15T16:56:26.381Z,70.22
2023-05-15T16:58:55.710Z,70.39
2023-05-15T17:01:22.169Z,70.74
2023-05-15T17:03:48.754Z,72.58
2023-05-15T17:06:15.410Z,73.28
2023-05-15T17:08:43.448Z,73.23
2023-05-15T17:11:10.275Z,72.81
2023-05-15T17:13:36.688Z,72.07
2023-05-15T17:16:03.315Z,73.03
2023-05-15T17:18:29.911Z,72.02
2023-05-15T17:20:56.284Z,72.18
2023-05-15T17:23:23.205Z,72.92
2023-05-15T17:25:49.648Z,72.79
2023-05-15T17:28:16.079Z,73.28
2023-05-15T17:30:42.672Z,73.18
2023-05-15T17:33:09.159Z,72.84
2023-05-15T17:35:35.673Z,72.83
2023-05-15T17:38:02.132Z,72.97
2023-05-15T17:40:28.557Z,72.91
2023-05-15T17:42:55.021Z,72.36
2023-05-15T17:45:21.424Z,74.11
2023-05-15T17:47:49.136Z,74.32
2023-05-15T17:50:15.684Z,75.38
2023-05-15T17:52:42.140Z,76.58
2023-05-15T17:55:08.926Z,77.91
2023-05-15T17:57:35.387Z,77.92
2023-05-15T18:00:01.972Z,77.29
2023-05-15T18:02:38.658Z,76.69
2023-05-15T18:05:05.746Z,77.68
2023-05-15T18:07:32.178Z,77.83
2023-05-15T18:09:58.595Z,78.38
2023-05-15T18:12:25.016Z,78.58
2023-05-15T18:14:51.507Z,78.79
2023-05-15T18:17:18.117Z,78.34
2023-05-15T18:19:44.786Z,78.59
2023-05-15T18:22:11.652Z,79.08
2023-05-15T18:24:38.063Z,79.70
2023-05-15T18:27:04.796Z,79.75
2023-05-15T18:29:31.268Z,79.76
2023-05-15T18:31:57.792Z,78.84
2023-05-15T18:34:24.358Z,77.80
2023-05-15T18:36:51.988Z,76.81
2023-05-15T18:39:18.928Z,77.27
2023-05-15T18:41:45.466Z,76.26
2023-05-15T18:44:11.906Z,75.91
2023-05-15T18:46:38.643Z,76.20
2023-05-15T18:49:05.220Z,76.73
2023-05-15T18:51:31.818Z,77.17
2023-05-15T18:53:58.365Z,77.38
2023-05-15T18:56:25.216Z,77.09
2023-05-15T18:58:51.729Z,77.37
2023-05-15T19:01:18.373Z,77.58
2023-05-15T19:03:44.934Z,77.63
2023-05-15T19:06:13.311Z,77.10
2023-05-15T19:08:39.753Z,76.95
2023-05-15T19:11:06.238Z,77.67
2023-05-15T19:13:33.083Z,78.05
2023-05-15T19:15:59.516Z,77.96
2023-05-15T19:18:25.928Z,78.38
2023-05-15T19:20:52.421Z,78.61
2023-05-15T19:23:20.486Z,78.41
2023-05-15T19:25:47.039Z,79.01
2023-05-15T19:28:14.750Z,79.54
2023-05-15T19:30:41.546Z,80.12
2023-05-15T19:33:08.155Z,80.00
2023-05-15T19:35:36.712Z,80.20
2023-05-15T19:38:03.986Z,80.72
2023-05-15T19:40:30.532Z,80.44
2023-05-15T19:42:56.974Z,79.86
2023-05-15T19:45:23.476Z,80.25
2023-05-15T19:47:49.919Z,81.13
2023-05-15T19:50:16.452Z,80.93
2023-05-15T19:52:45.316Z,80.78
2023-05-15T19:55:12.223Z,80.06
2023-05-15T19:57:40.180Z,80.33
2023-05-15T20:00:08.005Z,79.92
2023-05-15T20:02:34.628Z,80.52
2023-05-15T20:05:01.195Z,80.90
2023-05-15T20:07:27.726Z,80.95
2023-05-15T20:09:55.374Z,80.61
2023-05-15T20:12:21.934Z,80.45
2023-05-15T20:14:49.536Z,80.80
2023-05-15T20:17:17.755Z,81.98
2023-05-15T20:19:44.356Z,82.84
2023-05-15T20:22:10.811Z,83.90
2023-05-15T20:24:38.446Z,82.68
2023-05-15T20:27:05.305Z,82.91
2023-05-15T20:29:31.713Z,82.27
2023-05-15T20:31:59.365Z,82.81
2023-05-15T20:34:25.934Z,83.95
2023-05-15T20:36:52.679Z,83.92
2023-05-15T20:39:20.121Z,83.50
2023-05-15T20:41:47.900Z,84.07
2023-05-15T20:44:14.319Z,83.04
2023-05-15T20:46:42.538Z,82.38
2023-05-15T20:49:08.963Z,81.99
2023-05-15T20:51:35.897Z,81.88
2023-05-15T20:54:02.382Z,81.57
2023-05-15T20:56:29.174Z,81.59
2023-05-15T20:58:56.854Z,80.89
2023-05-15T21:01:25.721Z,80.61
2023-05-15T21:03:52.270Z,79.95
2023-05-15T21:06:18.799Z,80.56
2023-05-15T21:08:45.209Z,80.32
2023-05-15T21:11:11.763Z,80.35
2023-05-15T21:13:38.321Z,80.74
2023-05-15T21:16:05.119Z,80.60
2023-05-15T21:18:31.570Z,80.41
2023-05-15T21:20:58.107Z,79.71
2023-05-15T21:23:24.561Z,80.17
2023-05-15T21:25:51.024Z,80.05
2023-05-15T21:28:17.458Z,80.42
2023-05-15T21:30:44.302Z,81.02
2023-05-15T21:33:10.874Z,81.78
2023-05-15T21:35:38.031Z,81.53
2023-05-15T21:38:04.553Z,81.15
2023-05-15T21:40:31.225Z,81.24
2023-05-15T21:42:57.683Z,81.27
2023-05-15T21:45:24.120Z,81.27
2023-05-15T21:47:50.702Z,80.71
2023-05-15T21:50:17.377Z,81.40
2023-05-15T21:52:43.807Z,81.23
2023-05-15T21:55:10.679Z,80.71
2023-05-15T21:57:37.085Z,80.68
2023-05-15T22:00:06.791Z,80.81
2023-05-15T22:02:33.212Z,79.13
2023-05-15T22:04:59.791Z,77.93
2023-05-15T22:07:26.224Z,77.25
2023-05-15T22:09:53.103Z,77.49
2023-05-15T22:12:21.057Z,76.86
2023-05-15T22:14:58.580Z,76.43
2023-05-15T22:17:27.082Z,76.61
2023-05-15T22:19:53.715Z,76.01
2023-05-15T22:22:20.846Z,75.10
2023-05-15T22:24:47.815Z,75.15
2023-05-15T22:27:16.472Z,74.33
2023-05-15T22:29:42.922Z,73.28
2023-05-15T22:32:09.455Z,72.65
2023-05-15T22:34:36.066Z,73.11
2023-05-15T22:37:02.527Z,71.98
2023-05-15T22:39:28.903Z,73.03
2023-05-15T22:41:55.880Z,73.61
2023-05-15T22:44:22.552Z,74.71
2023-05-15T22:46:49.575Z,73.80
2023-05-15T22:49:19.220Z,73.47
2023-05-15T22:51:45.787Z,73.27
2023-05-15T22:54:12.225Z,73.24
2023-05-15T22:56:38.652Z,73.06
2023-05-15T22:59:05.649Z,72.90
2023-05-15T23:01:32.226Z,74.04
2023-05-15T23:03:58.857Z,74.09
2023-05-15T23:06:25.359Z,74.07
2023-05-15T23:08:51.891Z,73.98
2023-05-15T23:11:18.309Z,74.12
2023-05-15T23:13:44.742Z,73.61
2023-05-15T23:16:11.212Z,73.39
2023-05-15T23:18:37.957Z,73.59
2023-05-15T23:21:04.762Z,75.06
2023-05-15T23:23:31.321Z,75.03
2023-05-15T23:25:57.735Z,75.36
2023-05-15T23:28:24.345Z,74.94
2023-05-15T23:30:54.700Z,74.78
2023-05-15T23:33:21.690Z,75.49
2023-05-15T23:35:48.139Z,75.88
2023-05-15T23:38:14.614Z,77.10
2023-05-15T23:40:41.031Z,77.42
2023-05-15T23:43:07.441Z,77.45
2023-05-15T23:45:35.172Z,78.17
2023-05-15T23:48:01.619Z,78.49
2023-05-15T23:50:28.651Z,77.58
2023-05-15T23:52:55.246Z,77.39
2023-05-15T23:55:21.697Z,77.99
2023-05-15T23:57:48.333Z,78.56
